Time;durP1;ratioP1;P1;durP2;ratioP2;P2;SDS_P1;SDS_P2;PMS_P1;PMS_P2;Temp;Humidity;BMP_temperature;BMP_pressure;BME280_temperature;BME280_humidity;BME280_pressure;Samples;Min_cycle;Max_cycle;Signal;HPM_P1;HPM_P2
2022/02/10 00:23:01;;;;;;;11.05;5.68;;;7.80;99.90;;;;;;5096738;28;20020;-66
2022/02/10 00:36:29;;;;;;;11.07;5.55;;;7.80;99.90;;;;;;5096700;28;20043;-66
2022/02/10 00:39:15;;;;;;;8.05;5.25;;;7.80;99.90;;;;;;5097114;28;20028;-66
2022/02/10 00:41:43;;;;;;;8.10;4.87;;;7.80;99.90;;;;;;5097347;28;20016;-66
2022/02/10 00:44:10;;;;;;;14.65;5.10;;;7.70;99.90;;;;;;5097521;28;20428;-66
2022/02/10 00:46:37;;;;;;;10.73;5.50;;;7.70;99.90;;;;;;5097255;28;20024;-66
2022/02/10 00:49:04;;;;;;;8.98;5.28;;;7.70;99.90;;;;;;5097761;28;20328;-66
2022/02/10 00:51:32;;;;;;;11.20;5.75;;;7.70;99.90;;;;;;5079373;28;20376;-66
2022/02/10 00:53:59;;;;;;;8.75;5.55;;;7.60;99.90;;;;;;5097189;28;20020;-66
2022/02/10 00:56:27;;;;;;;10.40;5.43;;;7.60;99.90;;;;;;5079106;28;20031;-66
2022/02/10 00:59:14;;;;;;;10.13;5.25;;;7.60;99.90;;;;;;5078225;28;20031;-66
2022/02/10 01:10:26;;;;;;;13.37;5.87;;;7.60;99.90;;;;;;5098518;28;20292;-66
2022/02/10 01:13:02;;;;;;;9.65;5.18;;;7.50;99.90;;;;;;5099782;28;20023;-66
2022/02/10 01:31:53;;;;;;;13.68;6.32;;;7.40;99.90;;;;;;5100937;28;20031;-66
2022/02/10 01:34:20;;;;;;;10.90;5.88;;;7.30;99.90;;;;;;5100385;28;20057;-66
2022/02/10 01:36:48;;;;;;;11.40;5.75;;;7.30;99.90;;;;;;5100938;28;20020;-66
2022/02/10 01:39:21;;;;;;;12.07;5.82;;;7.30;99.90;;;;;;5081853;28;20416;-66
2022/02/10 02:03:52;;;;;;;11.45;5.82;;;7.20;99.90;;;;;;5100158;28;20028;-66
2022/02/10 02:06:24;;;;;;;14.48;6.22;;;7.20;99.90;;;;;;5081841;28;20110;-66
2022/02/10 02:08:52;;;;;;;16.88;6.10;;;7.20;99.90;;;;;;5100084;28;20020;-66
2022/02/10 02:11:29;;;;;;;10.88;6.07;;;7.20;99.90;;;;;;5099812;28;20028;-66
2022/02/10 02:13:56;;;;;;;13.07;5.97;;;7.20;99.90;;;;;;5100017;28;20027;-66
2022/02/10 02:16:26;;;;;;;13.20;6.75;;;7.20;99.90;;;;;;5078292;28;20051;-66
2022/02/10 02:18:55;;;;;;;14.95;6.25;;;7.20;99.90;;;;;;5079490;28;20316;-66
2022/02/10 02:21:23;;;;;;;12.63;6.18;;;7.20;99.90;;;;;;5079802;28;20415;-66
2022/02/10 02:23:51;;;;;;;11.38;6.80;;;7.20;99.90;;;;;;5078306;28;20075;-66
2022/02/10 02:26:24;;;;;;;13.38;6.45;;;7.20;99.90;;;;;;5078300;28;20321;-66
2022/02/10 02:28:57;;;;;;;14.55;6.45;;;7.20;99.90;;;;;;5079037;28;20405;-66
2022/02/10 02:31:32;;;;;;;12.45;6.80;;;7.20;99.90;;;;;;5078475;28;20420;-66
2022/02/10 02:37:53;;;;;;;12.88;6.72;;;7.30;99.90;;;;;;5078097;28;20028;-66
2022/02/10 02:39:54;;;;;;;12.20;6.55;;;7.20;99.90;;;;;;5068810;28;20044;-66
2022/02/10 03:10:08;;;;;;;12.13;6.43;;;7.20;99.90;;;;;;5077747;28;20025;-66
2022/02/10 03:12:36;;;;;;;11.45;5.75;;;7.10;99.90;;;;;;5077433;28;20025;-66
2022/02/10 03:15:13;;;;;;;11.18;5.95;;;7.10;99.90;;;;;;5081669;28;20048;-66
2022/02/10 03:18:36;;;;;;;10.32;5.63;;;7.10;99.90;;;;;;5097786;28;20047;-66
2022/02/10 03:20:55;;;;;;;10.77;5.22;;;7.10;99.90;;;;;;5088828;28;20032;-66
2022/02/10 04:02:40;;;;;;;10.63;5.03;;;6.60;99.90;;;;;;5097397;28;20545;-66
2022/02/10 04:20:56;;;;;;;10.48;4.72;;;6.10;99.90;;;;;;5097592;28;20023;-66
2022/02/10 04:31:45;;;;;;;6.97;4.05;;;6.10;99.90;;;;;;5096531;28;20046;-66
2022/02/10 04:37:47;;;;;;;9.05;4.38;;;6.00;99.90;;;;;;5096929;28;20081;-66
2022/02/10 05:16:21;;;;;;;10.90;4.93;;;5.80;99.90;;;;;;5078668;28;20109;-66
2022/02/10 05:19:05;;;;;;;9.70;4.97;;;5.80;99.90;;;;;;5079214;28;20028;-66
2022/02/10 05:21:54;;;;;;;11.05;5.00;;;5.90;99.90;;;;;;5079436;28;20032;-66
2022/02/10 05:24:42;;;;;;;12.55;5.22;;;5.90;99.90;;;;;;5079204;28;20205;-66
2022/02/10 05:35:31;;;;;;;13.30;5.80;;;6.00;99.90;;;;;;5080697;28;20019;-66
2022/02/10 05:38:14;;;;;;;16.20;5.43;;;6.00;99.90;;;;;;5080547;28;20313;-66
2022/02/10 05:43:32;;;;;;;11.68;4.68;;;6.10;99.90;;;;;;5080380;28;20056;-66
2022/02/10 06:51:06;;;;;;;18.25;7.65;;;6.20;99.90;;;;;;5098606;28;20458;-66
2022/02/10 06:53:51;;;;;;;17.10;7.80;;;6.20;99.90;;;;;;5099001;28;20305;-66
2022/02/10 06:56:50;;;;;;;14.85;7.95;;;6.20;99.90;;;;;;5098845;28;20054;-66
2022/02/10 07:51:18;;;;;;;15.43;7.93;;;6.20;99.90;;;;;;5081463;28;20028;-69
2022/02/10 07:53:58;;;;;;;16.38;9.18;;;6.20;99.90;;;;;;5097746;28;20027;-68
2022/02/10 07:56:54;;;;;;;16.05;8.07;;;6.30;99.90;;;;;;5079093;28;20040;-68
2022/02/10 08:26:11;;;;;;;21.20;7.63;;;6.60;99.90;;;;;;5096720;28;20076;-71
2022/02/10 08:28:14;;;;;;;18.08;7.25;;;6.70;99.90;;;;;;5098053;28;20024;-68
2022/02/10 08:55:05;;;;;;;17.93;6.93;;;6.90;99.90;;;;;;5096371;28;20031;-66
2022/02/10 08:58:18;;;;;;;18.38;7.80;;;6.90;99.90;;;;;;5078529;28;20331;-67
2022/02/10 09:06:27;;;;;;;17.35;7.72;;;6.90;99.90;;;;;;5051987;28;20060;-66
2022/02/10 09:09:31;;;;;;;13.70;7.05;;;6.90;99.90;;;;;;5081598;28;20020;-68
2022/02/10 09:17:22;;;;;;;18.30;9.48;;;6.90;99.90;;;;;;5096810;28;20090;-67
2022/02/10 09:48:02;;;;;;;22.33;10.95;;;7.00;99.90;;;;;;5100251;28;20081;-66
2022/02/10 09:54:26;;;;;;;24.05;10.68;;;6.90;99.90;;;;;;5100430;28;20098;-66
2022/02/10 09:56:17;;;;;;;29.98;11.52;;;6.80;99.90;;;;;;5099900;28;20020;-66
2022/02/10 10:04:16;;;;;;;23.45;11.98;;;6.90;99.90;;;;;;5098983;28;20024;-66
2022/02/10 10:06:57;;;;;;;27.63;12.27;;;6.90;99.90;;;;;;5099022;28;20025;-66
2022/02/10 10:17:47;;;;;;;24.75;11.63;;;6.80;99.90;;;;;;5078601;28;20036;-66
2022/02/10 10:20:28;;;;;;;19.15;10.90;;;6.80;99.90;;;;;;5078171;28;20487;-66
2022/02/10 10:26:28;;;;;;;22.85;10.50;;;6.80;99.90;;;;;;5037574;28;20017;-75
2022/02/10 10:52:29;;;;;;;20.20;10.07;;;6.70;99.90;;;;;;5036225;28;20029;-66
2022/02/10 10:55:21;;;;;;;13.50;8.23;;;6.70;99.90;;;;;;5072537;28;20059;-66
2022/02/10 10:57:52;;;;;;;16.52;8.95;;;6.70;99.90;;;;;;5077360;28;20028;-66
2022/02/10 11:37:19;;;;;;;4.85;2.20;;;6.30;99.90;;;;;;5077247;28;20378;-68
2022/02/10 11:40:18;;;;;;;7.45;3.38;;;6.30;99.90;;;;;;5076493;28;20033;-67
2022/02/10 11:43:28;;;;;;;2.75;1.25;;;6.20;99.90;;;;;;5076928;28;20020;-68
2022/02/10 11:46:58;;;;;;;2.90;1.23;;;6.20;99.90;;;;;;5077688;28;20056;-68
2022/02/10 12:00:47;;;;;;;2.65;1.35;;;6.50;99.90;;;;;;5077856;28;20042;-67
2022/02/10 12:35:02;;;;;;;4.80;0.60;;;7.10;99.90;;;;;;5097467;28;20024;-67
2022/02/10 12:37:01;;;;;;;3.50;0.70;;;7.00;99.90;;;;;;5096709;28;20032;-67
2022/02/10 12:40:04;;;;;;;1.75;0.50;;;6.90;99.90;;;;;;5097321;28;20023;-67
2022/02/10 14:14:11;;;;;;;5.25;1.90;;;7.10;99.90;;;;;;5098311;28;20055;-66
2022/02/10 14:16:42;;;;;;;3.40;1.60;;;7.00;99.90;;;;;;5095308;28;20040;-66
2022/02/10 14:19:18;;;;;;;3.80;1.05;;;7.00;99.90;;;;;;5098523;28;20024;-66
2022/02/10 14:22:01;;;;;;;3.30;1.27;;;6.90;99.90;;;;;;5098760;28;20035;-66
2022/02/10 14:27:15;;;;;;;3.45;1.17;;;6.90;99.90;;;;;;5099071;28;20032;-66
2022/02/10 14:29:43;;;;;;;4.13;1.67;;;6.90;99.90;;;;;;5100050;28;20477;-66
2022/02/10 14:32:15;;;;;;;3.50;1.80;;;6.90;99.90;;;;;;5081540;28;20445;-66
2022/02/10 14:34:45;;;;;;;7.97;1.60;;;6.90;99.90;;;;;;5082315;28;20117;-66
2022/02/10 14:43:12;;;;;;;3.30;1.40;;;6.90;99.90;;;;;;5099833;28;20020;-66
2022/02/10 15:16:49;;;;;;;7.93;3.80;;;6.80;99.90;;;;;;5098677;28;20044;-66
2022/02/10 15:32:45;;;;;;;4.43;1.85;;;6.70;99.90;;;;;;5098180;28;20032;-66
2022/02/10 15:51:25;;;;;;;7.85;2.40;;;6.40;99.90;;;;;;5097584;28;20751;-66
2022/02/10 16:13:51;;;;;;;7.55;2.50;;;5.90;99.90;;;;;;5097606;28;20068;-66
2022/02/10 16:18:15;;;;;;;6.80;2.63;;;5.80;99.90;;;;;;5096661;28;20040;-66
2022/02/10 16:20:50;;;;;;;8.82;2.55;;;5.70;99.90;;;;;;5097190;28;20312;-66
2022/02/10 16:23:20;;;;;;;6.57;2.65;;;5.60;99.90;;;;;;5078724;28;20020;-66
2022/02/10 16:26:08;;;;;;;5.97;2.88;;;5.60;99.90;;;;;;5096647;28;20031;-66
2022/02/10 16:28:36;;;;;;;8.95;2.55;;;5.60;99.90;;;;;;5096835;28;20024;-66
2022/02/10 16:31:04;;;;;;;7.72;2.85;;;5.60;99.90;;;;;;5078847;28;20424;-66
2022/02/10 16:33:33;;;;;;;7.60;3.15;;;5.50;99.90;;;;;;5097121;28;20032;-66
2022/02/10 16:36:04;;;;;;;8.70;3.35;;;5.50;99.90;;;;;;5097103;28;20077;-66
2022/02/10 16:38:34;;;;;;;5.28;2.35;;;5.50;99.90;;;;;;5101433;28;20481;-66
2022/02/10 16:41:01;;;;;;;8.52;2.30;;;5.40;99.90;;;;;;5101873;28;20024;-66
2022/02/10 16:43:28;;;;;;;5.93;3.10;;;5.40;99.90;;;;;;5084014;28;20016;-66
2022/02/10 16:45:56;;;;;;;6.88;2.38;;;5.40;99.90;;;;;;5101829;28;20023;-66
2022/02/10 16:48:24;;;;;;;5.38;2.38;;;5.30;99.90;;;;;;5103344;28;20312;-66
2022/02/10 16:50:51;;;;;;;5.38;2.50;;;5.30;99.90;;;;;;5101615;28;20048;-66
2022/02/10 16:53:23;;;;;;;7.80;2.80;;;5.30;99.90;;;;;;5101660;28;20027;-66
2022/02/10 16:56:04;;;;;;;6.70;2.42;;;5.30;99.90;;;;;;5101311;28;20062;-66
2022/02/10 16:58:41;;;;;;;4.40;2.40;;;5.30;99.90;;;;;;5100879;28;20043;-66
2022/02/10 17:04:19;;;;;;;7.68;3.58;;;5.30;99.90;;;;;;5100292;28;20369;-66
2022/02/10 17:18:08;;;;;;;7.03;3.60;;;5.20;99.90;;;;;;5100507;28;20055;-66
2022/02/10 17:20:44;;;;;;;13.38;3.75;;;5.20;99.90;;;;;;5082832;28;20408;-66
2022/02/10 17:26:07;;;;;;;11.60;4.18;;;5.20;99.90;;;;;;5101034;28;19954;-65
2022/02/10 17:28:37;;;;;;;8.88;3.55;;;5.10;99.90;;;;;;5100419;28;20050;-65
2022/02/10 17:36:31;;;;;;;11.80;3.30;;;5.20;99.90;;;;;;5100427;28;20025;-65
2022/02/10 17:51:27;;;;;;;8.82;2.90;;;5.10;99.90;;;;;;5099362;28;20019;-65
2022/02/10 17:52:46;;;;;;;10.05;3.45;;;5.10;99.90;;;;;;5099112;28;20132;-65
2022/02/10 17:55:15;;;;;;;9.70;3.45;;;5.10;99.90;;;;;;5099827;28;20024;-65
2022/02/10 17:57:43;;;;;;;7.32;3.67;;;5.10;99.90;;;;;;5098829;28;20024;-65
2022/02/10 18:00:11;;;;;;;7.88;3.08;;;5.10;99.90;;;;;;5082054;28;20311;-65
2022/02/10 18:02:39;;;;;;;5.55;2.97;;;5.10;99.90;;;;;;5100199;28;20044;-65
2022/02/10 18:05:13;;;;;;;7.00;3.30;;;5.10;99.90;;;;;;5099827;28;20024;-65
2022/02/10 18:07:43;;;;;;;13.48;4.18;;;5.10;99.90;;;;;;5100501;28;20020;-66
2022/02/10 18:13:28;;;;;;;;;;;5.10;99.90;;;;;;5045292;28;20032;-66
2022/02/10 18:16:00;;;;;;;7.78;2.50;;;5.10;99.90;;;;;;5099895;28;19916;-66
2022/02/10 18:18:40;;;;;;;6.78;3.17;;;5.10;99.90;;;;;;5081498;28;20032;-66
2022/02/10 18:21:28;;;;;;;8.15;3.20;;;5.10;99.90;;;;;;5098814;28;20048;-66
2022/02/10 18:30:15;;;;;;;5.22;2.80;;;5.00;99.90;;;;;;5098517;28;20107;-66
2022/02/10 19:03:01;;;;;;;3.53;1.85;;;4.40;99.90;;;;;;5098462;28;20039;-65
2022/02/10 19:07:59;;;;;;;7.22;1.80;;;4.30;99.90;;;;;;5098119;28;20141;-66
2022/02/10 19:10:27;;;;;;;3.13;1.50;;;4.20;99.90;;;;;;5098568;28;20020;-66
2022/02/10 19:12:57;;;;;;;5.32;1.98;;;4.20;99.90;;;;;;5098267;28;20103;-65
2022/02/10 19:15:33;;;;;;;8.50;2.15;;;4.20;99.90;;;;;;5079443;28;20105;-66
2022/02/10 19:18:07;;;;;;;6.53;2.03;;;4.10;99.90;;;;;;5097888;28;20012;-66
2022/02/10 19:20:35;;;;;;;7.63;2.10;;;4.10;99.90;;;;;;5097828;28;20051;-66
2022/02/10 19:23:05;;;;;;;7.07;2.92;;;4.10;99.90;;;;;;5080071;28;20044;-66
2022/02/10 19:25:34;;;;;;;4.78;2.00;;;4.00;99.90;;;;;;5098512;28;20020;-65
2022/02/10 19:28:02;;;;;;;6.38;2.30;;;4.00;99.90;;;;;;5098252;28;20107;-65
2022/02/10 19:30:32;;;;;;;7.10;2.58;;;4.10;99.90;;;;;;5098474;28;20104;-66
2022/02/10 19:33:02;;;;;;;9.25;2.90;;;4.10;99.90;;;;;;5098354;28;20051;-66
2022/02/10 19:35:33;;;;;;;7.05;2.70;;;4.10;99.90;;;;;;5080826;28;20024;-66
2022/02/10 19:38:03;;;;;;;5.97;2.67;;;4.10;99.90;;;;;;5098408;28;20012;-66
2022/02/10 19:40:35;;;;;;;6.10;2.88;;;4.10;99.90;;;;;;5098352;28;20020;-66
2022/02/10 19:43:02;;;;;;;5.38;2.83;;;4.10;99.90;;;;;;5097135;28;20452;-65
2022/02/10 19:45:30;;;;;;;6.45;3.40;;;4.10;99.90;;;;;;5079205;28;20435;-66
2022/02/10 19:47:57;;;;;;;9.65;3.10;;;4.10;99.90;;;;;;5097412;28;20024;-66
2022/02/10 19:50:30;;;;;;;7.80;3.40;;;4.10;99.90;;;;;;5097289;28;20446;-65
2022/02/10 19:53:03;;;;;;;9.32;3.42;;;4.20;99.90;;;;;;5097035;28;20309;-66
2022/02/10 19:55:33;;;;;;;8.00;2.63;;;4.20;99.90;;;;;;5097594;28;20019;-66
2022/02/10 19:58:06;;;;;;;13.27;4.10;;;4.20;99.90;;;;;;5096597;28;20109;-66
2022/02/10 20:00:43;;;;;;;9.18;3.28;;;4.20;99.90;;;;;;5097055;28;20332;-66
2022/02/10 20:03:15;;;;;;;7.93;2.90;;;4.20;99.90;;;;;;5096600;28;20107;-66
2022/02/10 20:05:48;;;;;;;5.75;3.45;;;4.20;99.90;;;;;;5098171;28;20047;-66
2022/02/10 20:08:22;;;;;;;3.88;2.35;;;4.20;99.90;;;;;;5097903;28;20036;-66
2022/02/10 20:10:54;;;;;;;5.28;2.30;;;4.20;99.90;;;;;;5097833;28;20025;-65
2022/02/10 20:13:31;;;;;;;36.85;12.55;;;4.20;99.90;;;;;;5097589;28;20027;-65
2022/02/10 20:16:07;;;;;;;28.30;11.57;;;4.20;99.90;;;;;;5097883;28;20044;-66
2022/02/10 20:18:39;;;;;;;12.48;4.80;;;4.20;99.90;;;;;;5097840;28;20032;-66
2022/02/10 20:21:08;;;;;;;11.30;3.85;;;4.20;99.90;;;;;;5097605;28;20027;-66
2022/02/10 20:23:37;;;;;;;8.60;3.10;;;4.20;99.90;;;;;;5097681;28;20028;-65
2022/02/10 20:26:05;;;;;;;9.43;3.05;;;4.20;99.90;;;;;;5096650;28;20073;-66
2022/02/10 20:28:32;;;;;;;7.47;3.05;;;4.20;99.90;;;;;;5078994;28;20020;-66
2022/02/10 20:31:01;;;;;;;9.18;3.42;;;4.30;99.90;;;;;;5097361;28;20419;-66
2022/02/10 20:33:30;;;;;;;12.77;3.75;;;4.30;99.90;;;;;;5097088;28;20028;-66
2022/02/10 20:36:01;;;;;;;8.45;4.22;;;4.20;99.90;;;;;;5096734;28;20060;-66
2022/02/10 20:38:30;;;;;;;9.30;4.78;;;4.20;99.90;;;;;;5097259;28;20025;-66
2022/02/10 20:41:03;;;;;;;10.63;4.50;;;4.20;99.90;;;;;;5078976;28;20028;-66
2022/02/10 20:43:32;;;;;;;8.05;3.78;;;4.20;99.90;;;;;;5096456;28;20024;-66
2022/02/10 20:46:06;;;;;;;6.25;3.38;;;4.20;99.90;;;;;;5096958;28;20012;-65
2022/02/10 20:48:37;;;;;;;8.85;3.95;;;4.20;99.90;;;;;;5097285;28;20450;-66
2022/02/10 20:51:12;;;;;;;8.45;3.97;;;4.20;99.90;;;;;;5098108;28;20322;-66
2022/02/10 20:53:43;;;;;;;7.07;2.95;;;4.20;99.90;;;;;;5097278;28;20028;-65
2022/02/10 20:56:13;;;;;;;9.52;3.42;;;4.20;99.90;;;;;;5097429;28;20021;-66
2022/02/10 20:58:41;;;;;;;8.07;3.75;;;4.20;99.90;;;;;;5097102;28;20070;-66
2022/02/10 21:01:13;;;;;;;12.38;4.35;;;4.20;99.90;;;;;;5097092;28;20483;-66
2022/02/10 21:03:43;;;;;;;12.18;4.07;;;4.20;99.90;;;;;;5096866;28;20424;-66
2022/02/10 21:06:42;;;;;;;10.68;4.45;;;4.20;99.90;;;;;;5096600;28;20028;-66
2022/02/10 21:09:16;;;;;;;12.87;4.20;;;4.10;99.90;;;;;;5093317;28;20039;-66
2022/02/10 21:11:44;;;;;;;10.80;3.95;;;4.20;99.90;;;;;;5095858;28;20031;-66
2022/02/10 21:14:18;;;;;;;8.20;3.65;;;4.10;99.90;;;;;;5096377;28;20333;-66
2022/02/10 21:16:47;;;;;;;26.02;10.43;;;4.10;99.90;;;;;;5096618;28;20048;-66
2022/02/10 21:19:17;;;;;;;11.55;4.50;;;4.10;99.90;;;;;;5078081;28;20054;-66
2022/02/10 21:21:45;;;;;;;7.80;3.45;;;4.10;99.90;;;;;;5096247;28;20324;-66
2022/02/10 21:24:19;;;;;;;4.03;2.35;;;4.10;99.90;;;;;;5098040;28;20040;-66
2022/02/10 21:27:25;;;;;;;6.05;3.10;;;4.10;99.90;;;;;;5099683;28;20023;-66
2022/02/10 21:29:55;;;;;;;7.75;3.13;;;4.10;99.90;;;;;;5100033;28;20428;-66
2022/02/10 21:32:26;;;;;;;7.93;3.13;;;4.00;99.90;;;;;;5100689;28;20115;-66
2022/02/10 21:37:51;;;;;;;8.68;4.10;;;4.00;99.90;;;;;;5101287;28;20368;-66
2022/02/10 21:47:02;;;;;;;8.35;3.17;;;3.80;99.90;;;;;;5100601;28;20039;-66
2022/02/10 21:48:36;;;;;;;11.95;3.67;;;3.80;99.90;;;;;;5099512;28;20420;-66
2022/02/10 21:57:00;;;;;;;6.93;3.88;;;3.80;99.90;;;;;;5099435;28;20020;-66
2022/02/10 22:18:34;;;;;;;10.75;5.20;;;3.80;99.90;;;;;;5099999;28;19962;-66
2022/02/10 22:21:05;;;;;;;14.18;5.57;;;3.80;99.90;;;;;;5100205;28;20052;-66
2022/02/10 22:23:36;;;;;;;15.40;5.90;;;3.80;99.90;;;;;;5099532;28;20024;-66
2022/02/10 22:26:07;;;;;;;13.63;5.88;;;3.80;99.90;;;;;;5100102;28;20358;-66
2022/02/10 22:28:48;;;;;;;12.10;5.47;;;3.80;99.90;;;;;;5099867;28;20019;-66
2022/02/10 22:31:28;;;;;;;13.10;6.20;;;3.80;99.90;;;;;;5099057;28;20102;-66
2022/02/10 22:36:31;;;;;;;11.32;5.95;;;3.80;99.90;;;;;;5098528;28;20024;-66
2022/02/10 22:39:02;;;;;;;10.82;5.22;;;3.80;99.90;;;;;;5098308;28;20330;-66
2022/02/10 22:41:30;;;;;;;11.82;4.75;;;3.90;99.90;;;;;;5098285;28;20492;-66
2022/02/10 22:44:01;;;;;;;15.43;6.43;;;3.90;99.90;;;;;;5098923;28;20368;-66
2022/02/10 22:46:29;;;;;;;18.30;5.65;;;3.90;99.90;;;;;;5098848;28;20290;-66
2022/02/10 22:48:57;;;;;;;14.13;5.35;;;3.90;99.90;;;;;;5098879;28;20028;-66
2022/02/10 22:51:27;;;;;;;10.55;5.07;;;3.90;99.90;;;;;;5098676;28;20046;-66
2022/02/10 22:53:55;;;;;;;17.13;5.97;;;3.90;99.90;;;;;;5099115;28;20073;-66
2022/02/10 22:56:31;;;;;;;14.82;5.45;;;3.90;99.90;;;;;;5099042;28;20016;-66
2022/02/10 22:59:05;;;;;;;10.25;5.00;;;3.80;99.90;;;;;;5080945;28;20031;-66
2022/02/10 23:01:34;;;;;;;12.52;5.30;;;3.90;99.90;;;;;;5099392;28;20363;-66
2022/02/10 23:04:02;;;;;;;11.50;5.72;;;3.80;99.90;;;;;;5098916;28;20024;-66
2022/02/10 23:06:30;;;;;;;14.27;5.68;;;3.80;99.90;;;;;;5099664;28;20373;-66
2022/02/10 23:08:59;;;;;;;15.88;6.85;;;3.80;99.90;;;;;;5080777;28;20087;-66
2022/02/10 23:11:29;;;;;;;17.30;5.75;;;3.80;99.90;;;;;;5098261;28;20028;-66
2022/02/10 23:14:01;;;;;;;9.85;5.53;;;3.80;99.90;;;;;;5097736;28;20086;-66
2022/02/10 23:16:29;;;;;;;12.27;5.78;;;3.80;99.90;;;;;;5097816;28;20398;-66
2022/02/10 23:18:57;;;;;;;12.45;5.20;;;3.80;99.90;;;;;;5079627;28;20028;-66
2022/02/10 23:21:24;;;;;;;11.57;5.93;;;3.80;99.90;;;;;;5079778;28;20151;-66
2022/02/10 23:23:52;;;;;;;11.13;4.80;;;3.80;99.90;;;;;;5098132;28;20059;-66
2022/02/10 23:26:21;;;;;;;11.27;6.55;;;3.80;99.90;;;;;;5097511;28;20047;-66
2022/02/10 23:28:51;;;;;;;13.73;7.22;;;3.90;99.90;;;;;;5098039;28;20032;-66
2022/02/10 23:31:21;;;;;;;14.02;5.43;;;3.90;99.90;;;;;;5079461;28;20120;-66
2022/02/10 23:33:54;;;;;;;11.63;6.05;;;3.90;99.90;;;;;;5097646;28;20102;-66
2022/02/10 23:39:05;;;;;;;10.75;5.25;;;3.90;99.90;;;;;;5098170;28;20103;-66
2022/02/10 23:44:12;;;;;;;12.50;6.20;;;3.90;99.90;;;;;;5098182;28;20409;-66
2022/02/10 23:46:42;;;;;;;11.82;6.05;;;3.90;99.90;;;;;;5081097;28;20046;-66
2022/02/10 23:49:14;;;;;;;13.20;5.72;;;3.90;99.90;;;;;;5098053;28;20023;-66
2022/02/10 23:51:49;;;;;;;13.48;6.25;;;3.90;99.90;;;;;;5097978;28;20031;-66
2022/02/10 23:54:17;;;;;;;16.77;7.07;;;3.90;99.90;;;;;;5098012;28;20316;-66
2022/02/10 23:56:50;;;;;;;15.85;6.63;;;3.90;99.90;;;;;;5097578;28;20110;-66
2022/02/10 23:59:40;;;;;;;23.85;6.63;;;3.90;99.90;;;;;;5097675;28;20028;-66
